BIENTÔT MET'MAP
version 2.0 !

Prévue avant fin octobre,
la nouvelle version sera
plus belle, plus complète
et hébergée sur un serveur
3 fois plus puissant...
et toujours gratuite !


Pas compatible ?
Essayez la version Mobile !

SE CONNECTER : | S'inscrire | Disclaimer | Découvrir Orbifly |
Code OACI :

TAF - LGKP Karpathos - 01 Jun 2020 22:24 UTC - Data Source NOAA   


- Altitude de l'aérodrome : 66 ft
- Code IATA : AOK
- Pas de NOTAMs connus.


LGKP - Karpathos

Dernier METAR connu : 2015/08/11 07:50 LGKP 110750Z AUTO 28017KT //// // ////// 29/21 Q1011 RE//
TAF TAF LGKP
Valide du 01 à 18h jusqu'au 02 à 03h UTC


011700Z 0118/0203 35012KT 9999 SCT018
PROB30
TEMPO 0201/0203 5000 RA BKN018
PROB30
TEMPO 0201/0203 4000 TSRA FEW016CB BKN018

Source NOAA


MET'MAP, la Météo Aéronautique d'un coup d'oeil ! - Copyright ORBIFLY Décembre 2007

Développement & Programmation : Alexandra Zaïnal
Co-Développement : Marc-Olivier Méhu
Soutien technique & logistique : Manuel Goepfert
Conception & Financement : Baudouin d'Aumeries